sensor_id;sensor_type;location;lat;lon;timestamp;P1;P2;P0
52000;PMS5003;38015;50.924;11.598;2022-08-30T00:01:21;7;7;
52000;PMS5003;38015;50.924;11.598;2022-08-30T00:03:50;3;3;
52000;PMS5003;38015;50.924;11.598;2022-08-30T00:06:21;4;4;
52000;PMS5003;38015;50.924;11.598;2022-08-30T00:08:51;5;5;
52000;PMS5003;38015;50.924;11.598;2022-08-30T00:11:22;7;4;
52000;PMS5003;38015;50.924;11.598;2022-08-30T00:13:52;6;6;
52000;PMS5003;38015;50.924;11.598;2022-08-30T00:16:22;6;4;
52000;PMS5003;38015;50.924;11.598;2022-08-30T00:18:52;7;5;
52000;PMS5003;38015;50.924;11.598;2022-08-30T00:21:22;5;5;
52000;PMS5003;38015;50.924;11.598;2022-08-30T00:23:53;5;5;
52000;PMS5003;38015;50.924;11.598;2022-08-30T00:26:23;5;5;
52000;PMS5003;38015;50.924;11.598;2022-08-30T00:28:54;4;4;
52000;PMS5003;38015;50.924;11.598;2022-08-30T00:31:25;6;6;
52000;PMS5003;38015;50.924;11.598;2022-08-30T00:33:55;6;6;
52000;PMS5003;38015;50.924;11.598;2022-08-30T00:36:26;5;5;
52000;PMS5003;38015;50.924;11.598;2022-08-30T00:38:56;6;6;
52000;PMS5003;38015;50.924;11.598;2022-08-30T00:41:26;6;6;
52000;PMS5003;38015;50.924;11.598;2022-08-30T00:44:01;4;4;
52000;PMS5003;38015;50.924;11.598;2022-08-30T00:46:27;9;5;
52000;PMS5003;38015;50.924;11.598;2022-08-30T00:48:57;4;4;
52000;PMS5003;38015;50.924;11.598;2022-08-30T00:51:28;6;6;
52000;PMS5003;38015;50.924;11.598;2022-08-30T00:53:58;7;7;
52000;PMS5003;38015;50.924;11.598;2022-08-30T00:56:28;3;3;
52000;PMS5003;38015;50.924;11.598;2022-08-30T00:58:59;5;5;
52000;PMS5003;38015;50.924;11.598;2022-08-30T01:01:29;6;5;
52000;PMS5003;38015;50.924;11.598;2022-08-30T01:03:59;6;5;
52000;PMS5003;38015;50.924;11.598;2022-08-30T01:06:30;7;6;
52000;PMS5003;38015;50.924;11.598;2022-08-30T01:09:01;5;5;
52000;PMS5003;38015;50.924;11.598;2022-08-30T01:11:31;6;5;
52000;PMS5003;38015;50.924;11.598;2022-08-30T01:14:01;6;5;
52000;PMS5003;38015;50.924;11.598;2022-08-30T01:16:31;5;3;
52000;PMS5003;38015;50.924;11.598;2022-08-30T01:19:02;7;7;
52000;PMS5003;38015;50.924;11.598;2022-08-30T01:21:34;5;5;
52000;PMS5003;38015;50.924;11.598;2022-08-30T01:24:03;4;3;
52000;PMS5003;38015;50.924;11.598;2022-08-30T01:26:33;3;3;
52000;PMS5003;38015;50.924;11.598;2022-08-30T01:29:04;5;5;
52000;PMS5003;38015;50.924;11.598;2022-08-30T01:31:33;5;5;
52000;PMS5003;38015;50.924;11.598;2022-08-30T01:34:04;4;4;
52000;PMS5003;38015;50.924;11.598;2022-08-30T01:36:35;5;5;
52000;PMS5003;38015;50.924;11.598;2022-08-30T01:39:07;4;4;
52000;PMS5003;38015;50.924;11.598;2022-08-30T01:41:35;7;7;
52000;PMS5003;38015;50.924;11.598;2022-08-30T01:44:07;7;6;
52000;PMS5003;38015;50.924;11.598;2022-08-30T01:46:37;5;5;
52000;PMS5003;38015;50.924;11.598;2022-08-30T01:49:07;6;6;
52000;PMS5003;38015;50.924;11.598;2022-08-30T01:51:37;3;3;
52000;PMS5003;38015;50.924;11.598;2022-08-30T01:54:07;5;5;
52000;PMS5003;38015;50.924;11.598;2022-08-30T01:56:37;6;6;
52000;PMS5003;38015;50.924;11.598;2022-08-30T01:59:08;5;5;
52000;PMS5003;38015;50.924;11.598;2022-08-30T02:01:38;4;4;
52000;PMS5003;38015;50.924;11.598;2022-08-30T02:04:08;6;5;
52000;PMS5003;38015;50.924;11.598;2022-08-30T02:06:39;5;5;
52000;PMS5003;38015;50.924;11.598;2022-08-30T02:09:09;6;6;
52000;PMS5003;38015;50.924;11.598;2022-08-30T02:11:40;4;3;
52000;PMS5003;38015;50.924;11.598;2022-08-30T02:14:10;5;5;
52000;PMS5003;38015;50.924;11.598;2022-08-30T02:16:41;6;5;
52000;PMS5003;38015;50.924;11.598;2022-08-30T02:19:11;7;5;
52000;PMS5003;38015;50.924;11.598;2022-08-30T02:21:41;6;6;
52000;PMS5003;38015;50.924;11.598;2022-08-30T02:24:11;5;5;
52000;PMS5003;38015;50.924;11.598;2022-08-30T02:26:42;5;5;
52000;PMS5003;38015;50.924;11.598;2022-08-30T02:29:12;7;7;
52000;PMS5003;38015;50.924;11.598;2022-08-30T02:31:42;5;5;
52000;PMS5003;38015;50.924;11.598;2022-08-30T02:34:13;6;6;
52000;PMS5003;38015;50.924;11.598;2022-08-30T02:36:44;5;5;
52000;PMS5003;38015;50.924;11.598;2022-08-30T02:39:14;4;4;
52000;PMS5003;38015;50.924;11.598;2022-08-30T02:41:44;4;4;
52000;PMS5003;38015;50.924;11.598;2022-08-30T02:44:14;4;4;
52000;PMS5003;38015;50.924;11.598;2022-08-30T02:46:44;6;5;
52000;PMS5003;38015;50.924;11.598;2022-08-30T02:49:15;10;6;
52000;PMS5003;38015;50.924;11.598;2022-08-30T02:51:45;4;4;
52000;PMS5003;38015;50.924;11.598;2022-08-30T02:54:15;6;6;
52000;PMS5003;38015;50.924;11.598;2022-08-30T02:56:46;6;6;
52000;PMS5003;38015;50.924;11.598;2022-08-30T02:59:16;7;5;
52000;PMS5003;38015;50.924;11.598;2022-08-30T03:01:47;5;4;
52000;PMS5003;38015;50.924;11.598;2022-08-30T03:04:17;7;6;
52000;PMS5003;38015;50.924;11.598;2022-08-30T03:06:47;5;5;
52000;PMS5003;38015;50.924;11.598;2022-08-30T03:09:18;5;5;
52000;PMS5003;38015;50.924;11.598;2022-08-30T03:11:48;6;6;
52000;PMS5003;38015;50.924;11.598;2022-08-30T03:14:18;5;5;
52000;PMS5003;38015;50.924;11.598;2022-08-30T03:16:49;5;5;
52000;PMS5003;38015;50.924;11.598;2022-08-30T03:19:19;4;4;
52000;PMS5003;38015;50.924;11.598;2022-08-30T03:21:49;5;5;
52000;PMS5003;38015;50.924;11.598;2022-08-30T03:24:20;4;4;
52000;PMS5003;38015;50.924;11.598;2022-08-30T03:26:50;6;6;
52000;PMS5003;38015;50.924;11.598;2022-08-30T03:29:20;4;4;
52000;PMS5003;38015;50.924;11.598;2022-08-30T03:31:51;7;7;
52000;PMS5003;38015;50.924;11.598;2022-08-30T03:34:21;7;7;
52000;PMS5003;38015;50.924;11.598;2022-08-30T03:36:52;4;4;
52000;PMS5003;38015;50.924;11.598;2022-08-30T03:39:23;3;3;
52000;PMS5003;38015;50.924;11.598;2022-08-30T03:41:52;5;4;
52000;PMS5003;38015;50.924;11.598;2022-08-30T03:44:22;5;5;
52000;PMS5003;38015;50.924;11.598;2022-08-30T03:46:53;6;5;
52000;PMS5003;38015;50.924;11.598;2022-08-30T03:49:23;7;4;
52000;PMS5003;38015;50.924;11.598;2022-08-30T03:51:53;5;5;
52000;PMS5003;38015;50.924;11.598;2022-08-30T03:54:24;4;4;
52000;PMS5003;38015;50.924;11.598;2022-08-30T03:56:54;6;5;
52000;PMS5003;38015;50.924;11.598;2022-08-30T03:59:24;7;6;
52000;PMS5003;38015;50.924;11.598;2022-08-30T04:01:55;3;3;
52000;PMS5003;38015;50.924;11.598;2022-08-30T04:04:25;4;4;
52000;PMS5003;38015;50.924;11.598;2022-08-30T04:06:55;6;5;
52000;PMS5003;38015;50.924;11.598;2022-08-30T04:09:26;5;5;
52000;PMS5003;38015;50.924;11.598;2022-08-30T04:11:56;5;5;
52000;PMS5003;38015;50.924;11.598;2022-08-30T04:14:26;6;5;
52000;PMS5003;38015;50.924;11.598;2022-08-30T04:16:57;6;6;
52000;PMS5003;38015;50.924;11.598;2022-08-30T04:19:27;7;5;
52000;PMS5003;38015;50.924;11.598;2022-08-30T04:21:57;5;5;
52000;PMS5003;38015;50.924;11.598;2022-08-30T04:24:28;7;6;
52000;PMS5003;38015;50.924;11.598;2022-08-30T04:26:59;6;6;
52000;PMS5003;38015;50.924;11.598;2022-08-30T04:29:29;6;5;
52000;PMS5003;38015;50.924;11.598;2022-08-30T04:31:59;5;5;
52000;PMS5003;38015;50.924;11.598;2022-08-30T04:34:30;7;4;
52000;PMS5003;38015;50.924;11.598;2022-08-30T04:37:00;7;5;
52000;PMS5003;38015;50.924;11.598;2022-08-30T04:39:33;5;5;
52000;PMS5003;38015;50.924;11.598;2022-08-30T04:42:01;5;5;
52000;PMS5003;38015;50.924;11.598;2022-08-30T04:44:31;7;7;
52000;PMS5003;38015;50.924;11.598;2022-08-30T04:47:02;6;6;
52000;PMS5003;38015;50.924;11.598;2022-08-30T04:49:32;6;6;
52000;PMS5003;38015;50.924;11.598;2022-08-30T04:52:03;4;4;
52000;PMS5003;38015;50.924;11.598;2022-08-30T04:54:33;4;4;
52000;PMS5003;38015;50.924;11.598;2022-08-30T04:57:04;5;5;
52000;PMS5003;38015;50.924;11.598;2022-08-30T04:59:33;3;3;
52000;PMS5003;38015;50.924;11.598;2022-08-30T05:02:04;6;4;
52000;PMS5003;38015;50.924;11.598;2022-08-30T05:04:35;5;5;
52000;PMS5003;38015;50.924;11.598;2022-08-30T05:07:04;7;6;
52000;PMS5003;38015;50.924;11.598;2022-08-30T05:09:35;5;5;
52000;PMS5003;38015;50.924;11.598;2022-08-30T05:12:05;4;4;
52000;PMS5003;38015;50.924;11.598;2022-08-30T05:14:35;3;3;
52000;PMS5003;38015;50.924;11.598;2022-08-30T05:17:06;7;7;
52000;PMS5003;38015;50.924;11.598;2022-08-30T05:19:36;4;4;
52000;PMS5003;38015;50.924;11.598;2022-08-30T05:22:06;5;4;
52000;PMS5003;38015;50.924;11.598;2022-08-30T05:24:37;6;5;
52000;PMS5003;38015;50.924;11.598;2022-08-30T05:27:07;7;6;
52000;PMS5003;38015;50.924;11.598;2022-08-30T05:29:37;4;4;
52000;PMS5003;38015;50.924;11.598;2022-08-30T05:32:08;5;4;
52000;PMS5003;38015;50.924;11.598;2022-08-30T05:34:38;7;6;
52000;PMS5003;38015;50.924;11.598;2022-08-30T05:37:09;4;4;
52000;PMS5003;38015;50.924;11.598;2022-08-30T05:39:39;4;4;
52000;PMS5003;38015;50.924;11.598;2022-08-30T05:42:10;6;5;
52000;PMS5003;38015;50.924;11.598;2022-08-30T05:44:40;5;5;
52000;PMS5003;38015;50.924;11.598;2022-08-30T05:47:10;4;4;
52000;PMS5003;38015;50.924;11.598;2022-08-30T05:49:41;4;4;
52000;PMS5003;38015;50.924;11.598;2022-08-30T05:52:11;4;4;
52000;PMS5003;38015;50.924;11.598;2022-08-30T05:54:41;4;4;
52000;PMS5003;38015;50.924;11.598;2022-08-30T05:57:12;6;6;
52000;PMS5003;38015;50.924;11.598;2022-08-30T05:59:42;4;4;
52000;PMS5003;38015;50.924;11.598;2022-08-30T06:02:12;6;5;
52000;PMS5003;38015;50.924;11.598;2022-08-30T06:04:43;6;5;
52000;PMS5003;38015;50.924;11.598;2022-08-30T06:07:14;4;4;
52000;PMS5003;38015;50.924;11.598;2022-08-30T06:09:44;6;4;
52000;PMS5003;38015;50.924;11.598;2022-08-30T06:12:14;4;4;
52000;PMS5003;38015;50.924;11.598;2022-08-30T06:14:45;7;5;
52000;PMS5003;38015;50.924;11.598;2022-08-30T06:17:15;6;6;
52000;PMS5003;38015;50.924;11.598;2022-08-30T06:19:45;5;5;
52000;PMS5003;38015;50.924;11.598;2022-08-30T06:22:16;6;5;
52000;PMS5003;38015;50.924;11.598;2022-08-30T06:24:46;5;4;
52000;PMS5003;38015;50.924;11.598;2022-08-30T06:27:16;5;4;
52000;PMS5003;38015;50.924;11.598;2022-08-30T06:29:49;6;5;
52000;PMS5003;38015;50.924;11.598;2022-08-30T06:32:17;5;5;
52000;PMS5003;38015;50.924;11.598;2022-08-30T06:34:48;3;3;
52000;PMS5003;38015;50.924;11.598;2022-08-30T06:37:18;5;5;
52000;PMS5003;38015;50.924;11.598;2022-08-30T06:39:48;5;4;
52000;PMS5003;38015;50.924;11.598;2022-08-30T06:42:19;3;3;
52000;PMS5003;38015;50.924;11.598;2022-08-30T06:44:49;4;4;
52000;PMS5003;38015;50.924;11.598;2022-08-30T06:47:20;7;6;
52000;PMS5003;38015;50.924;11.598;2022-08-30T06:49:50;3;3;
52000;PMS5003;38015;50.924;11.598;2022-08-30T06:52:20;5;5;
52000;PMS5003;38015;50.924;11.598;2022-08-30T06:54:52;4;4;
52000;PMS5003;38015;50.924;11.598;2022-08-30T06:57:21;3;3;
52000;PMS5003;38015;50.924;11.598;2022-08-30T06:59:53;6;5;
52000;PMS5003;38015;50.924;11.598;2022-08-30T07:02:22;5;5;
52000;PMS5003;38015;50.924;11.598;2022-08-30T07:04:52;7;5;
52000;PMS5003;38015;50.924;11.598;2022-08-30T07:07:22;5;3;
52000;PMS5003;38015;50.924;11.598;2022-08-30T07:09:52;4;4;
52000;PMS5003;38015;50.924;11.598;2022-08-30T07:12:23;5;5;
52000;PMS5003;38015;50.924;11.598;2022-08-30T07:14:53;4;4;
52000;PMS5003;38015;50.924;11.598;2022-08-30T07:17:23;5;5;
52000;PMS5003;38015;50.924;11.598;2022-08-30T07:19:54;3;3;
52000;PMS5003;38015;50.924;11.598;2022-08-30T07:22:25;5;5;
52000;PMS5003;38015;50.924;11.598;2022-08-30T07:24:55;6;6;
52000;PMS5003;38015;50.924;11.598;2022-08-30T07:27:25;4;4;
52000;PMS5003;38015;50.924;11.598;2022-08-30T07:29:56;3;3;
52000;PMS5003;38015;50.924;11.598;2022-08-30T07:32:26;4;4;
52000;PMS5003;38015;50.924;11.598;2022-08-30T07:34:56;5;4;
52000;PMS5003;38015;50.924;11.598;2022-08-30T07:37:27;6;6;
52000;PMS5003;38015;50.924;11.598;2022-08-30T07:39:57;5;4;
52000;PMS5003;38015;50.924;11.598;2022-08-30T07:42:27;6;6;
52000;PMS5003;38015;50.924;11.598;2022-08-30T07:44:58;5;5;
52000;PMS5003;38015;50.924;11.598;2022-08-30T07:47:28;6;5;
52000;PMS5003;38015;50.924;11.598;2022-08-30T07:49:59;4;4;
52000;PMS5003;38015;50.924;11.598;2022-08-30T07:52:29;5;5;
52000;PMS5003;38015;50.924;11.598;2022-08-30T07:54:59;4;4;
52000;PMS5003;38015;50.924;11.598;2022-08-30T07:57:29;5;4;
52000;PMS5003;38015;50.924;11.598;2022-08-30T08:00:00;5;4;
52000;PMS5003;38015;50.924;11.598;2022-08-30T08:02:30;5;5;
52000;PMS5003;38015;50.924;11.598;2022-08-30T08:05:00;5;5;
52000;PMS5003;38015;50.924;11.598;2022-08-30T08:07:31;6;4;
52000;PMS5003;38015;50.924;11.598;2022-08-30T08:10:02;7;6;
52000;PMS5003;38015;50.924;11.598;2022-08-30T08:12:31;5;4;
52000;PMS5003;38015;50.924;11.598;2022-08-30T08:15:02;5;5;
52000;PMS5003;38015;50.924;11.598;2022-08-30T08:17:32;4;4;
52000;PMS5003;38015;50.924;11.598;2022-08-30T08:20:03;4;4;
52000;PMS5003;38015;50.924;11.598;2022-08-30T08:22:33;4;4;
52000;PMS5003;38015;50.924;11.598;2022-08-30T08:25:04;4;4;
52000;PMS5003;38015;50.924;11.598;2022-08-30T08:27:34;5;5;
52000;PMS5003;38015;50.924;11.598;2022-08-30T08:30:04;5;5;
52000;PMS5003;38015;50.924;11.598;2022-08-30T08:32:34;4;4;
52000;PMS5003;38015;50.924;11.598;2022-08-30T08:35:05;4;4;
52000;PMS5003;38015;50.924;11.598;2022-08-30T08:37:35;5;5;
52000;PMS5003;38015;50.924;11.598;2022-08-30T08:40:06;3;3;
52000;PMS5003;38015;50.924;11.598;2022-08-30T08:42:39;5;4;
52000;PMS5003;38015;50.924;11.598;2022-08-30T08:45:08;4;4;
52000;PMS5003;38015;50.924;11.598;2022-08-30T08:47:37;6;5;
52000;PMS5003;38015;50.924;11.598;2022-08-30T08:50:09;6;6;
52000;PMS5003;38015;50.924;11.598;2022-08-30T08:52:43;2;2;
52000;PMS5003;38015;50.924;11.598;2022-08-30T08:55:09;6;5;
52000;PMS5003;38015;50.924;11.598;2022-08-30T08:57:38;5;5;
52000;PMS5003;38015;50.924;11.598;2022-08-30T09:00:10;6;6;
52000;PMS5003;38015;50.924;11.598;2022-08-30T09:02:39;8;8;
52000;PMS5003;38015;50.924;11.598;2022-08-30T09:05:10;4;4;
52000;PMS5003;38015;50.924;11.598;2022-08-30T09:07:40;6;5;
52000;PMS5003;38015;50.924;11.598;2022-08-30T09:10:09;6;4;
52000;PMS5003;38015;50.924;11.598;2022-08-30T09:12:40;5;4;
52000;PMS5003;38015;50.924;11.598;2022-08-30T09:15:17;8;7;
52000;PMS5003;38015;50.924;11.598;2022-08-30T09:20:11;5;5;
52000;PMS5003;38015;50.924;11.598;2022-08-30T09:22:41;5;4;
52000;PMS5003;38015;50.924;11.598;2022-08-30T09:27:42;8;8;
52000;PMS5003;38015;50.924;11.598;2022-08-30T09:30:14;5;4;
52000;PMS5003;38015;50.924;11.598;2022-08-30T09:32:48;5;5;
52000;PMS5003;38015;50.924;11.598;2022-08-30T09:35:17;4;4;
52000;PMS5003;38015;50.924;11.598;2022-08-30T09:37:45;6;6;
52000;PMS5003;38015;50.924;11.598;2022-08-30T09:40:15;4;4;
52000;PMS5003;38015;50.924;11.598;2022-08-30T09:45:18;6;4;
52000;PMS5003;38015;50.924;11.598;2022-08-30T09:47:44;5;5;
52000;PMS5003;38015;50.924;11.598;2022-08-30T09:50:15;6;6;
52000;PMS5003;38015;50.924;11.598;2022-08-30T09:52:50;5;5;
52000;PMS5003;38015;50.924;11.598;2022-08-30T09:55:20;4;4;
52000;PMS5003;38015;50.924;11.598;2022-08-30T09:57:48;4;4;
52000;PMS5003;38015;50.924;11.598;2022-08-30T10:00:17;6;5;
52000;PMS5003;38015;50.924;11.598;2022-08-30T10:02:49;7;6;
52000;PMS5003;38015;50.924;11.598;2022-08-30T10:05:18;6;6;
52000;PMS5003;38015;50.924;11.598;2022-08-30T10:07:48;4;4;
52000;PMS5003;38015;50.924;11.598;2022-08-30T10:10:18;4;4;
52000;PMS5003;38015;50.924;11.598;2022-08-30T10:12:51;7;7;
52000;PMS5003;38015;50.924;11.598;2022-08-30T10:15:19;7;7;
52000;PMS5003;38015;50.924;11.598;2022-08-30T10:17:49;7;6;
52000;PMS5003;38015;50.924;11.598;2022-08-30T10:20:20;4;4;
52000;PMS5003;38015;50.924;11.598;2022-08-30T10:22:49;7;7;
52000;PMS5003;38015;50.924;11.598;2022-08-30T10:25:21;8;6;
52000;PMS5003;38015;50.924;11.598;2022-08-30T10:27:51;6;6;
52000;PMS5003;38015;50.924;11.598;2022-08-30T10:30:20;5;5;
52000;PMS5003;38015;50.924;11.598;2022-08-30T10:32:52;7;6;
52000;PMS5003;38015;50.924;11.598;2022-08-30T10:35:22;6;5;
52000;PMS5003;38015;50.924;11.598;2022-08-30T10:37:52;7;7;
52000;PMS5003;38015;50.924;11.598;2022-08-30T10:40:23;5;5;
52000;PMS5003;38015;50.924;11.598;2022-08-30T10:42:52;6;5;
52000;PMS5003;38015;50.924;11.598;2022-08-30T10:45:22;6;6;
52000;PMS5003;38015;50.924;11.598;2022-08-30T10:47:53;4;4;
52000;PMS5003;38015;50.924;11.598;2022-08-30T10:50:24;7;7;
52000;PMS5003;38015;50.924;11.598;2022-08-30T10:52:54;6;6;
52000;PMS5003;38015;50.924;11.598;2022-08-30T10:55:24;7;7;
52000;PMS5003;38015;50.924;11.598;2022-08-30T10:57:57;6;6;
52000;PMS5003;38015;50.924;11.598;2022-08-30T11:00:25;5;5;
52000;PMS5003;38015;50.924;11.598;2022-08-30T11:03:01;6;5;
52000;PMS5003;38015;50.924;11.598;2022-08-30T11:05:31;5;5;
52000;PMS5003;38015;50.924;11.598;2022-08-30T11:07:57;4;4;
52000;PMS5003;38015;50.924;11.598;2022-08-30T11:10:30;6;6;
52000;PMS5003;38015;50.924;11.598;2022-08-30T11:12:57;7;5;
52000;PMS5003;38015;50.924;11.598;2022-08-30T11:15:27;6;6;
52000;PMS5003;38015;50.924;11.598;2022-08-30T11:17:57;5;5;
52000;PMS5003;38015;50.924;11.598;2022-08-30T11:20:29;8;7;
52000;PMS5003;38015;50.924;11.598;2022-08-30T11:27:58;6;6;
52000;PMS5003;38015;50.924;11.598;2022-08-30T11:32:59;5;5;
52000;PMS5003;38015;50.924;11.598;2022-08-30T11:37:59;5;5;
52000;PMS5003;38015;50.924;11.598;2022-08-30T11:43:00;8;8;
52000;PMS5003;38015;50.924;11.598;2022-08-30T11:48:01;5;5;
52000;PMS5003;38015;50.924;11.598;2022-08-30T11:50:32;6;6;
52000;PMS5003;38015;50.924;11.598;2022-08-30T11:53:02;6;6;
52000;PMS5003;38015;50.924;11.598;2022-08-30T11:55:38;7;7;
52000;PMS5003;38015;50.924;11.598;2022-08-30T11:58:06;5;5;
52000;PMS5003;38015;50.924;11.598;2022-08-30T12:00:32;5;5;
52000;PMS5003;38015;50.924;11.598;2022-08-30T12:03:03;6;6;
52000;PMS5003;38015;50.924;11.598;2022-08-30T12:08:04;6;6;
52000;PMS5003;38015;50.924;11.598;2022-08-30T12:10:35;6;6;
52000;PMS5003;38015;50.924;11.598;2022-08-30T12:13:04;6;6;
52000;PMS5003;38015;50.924;11.598;2022-08-30T12:18:05;7;7;
52000;PMS5003;38015;50.924;11.598;2022-08-30T12:20:37;7;7;
52000;PMS5003;38015;50.924;11.598;2022-08-30T12:25:35;8;8;
52000;PMS5003;38015;50.924;11.598;2022-08-30T12:28:10;6;6;
52000;PMS5003;38015;50.924;11.598;2022-08-30T12:30:36;7;7;
52000;PMS5003;38015;50.924;11.598;2022-08-30T12:33:08;6;6;
52000;PMS5003;38015;50.924;11.598;2022-08-30T12:35:37;5;5;
52000;PMS5003;38015;50.924;11.598;2022-08-30T12:38:11;7;7;
52000;PMS5003;38015;50.924;11.598;2022-08-30T12:40:41;6;6;
52000;PMS5003;38015;50.924;11.598;2022-08-30T12:43:15;7;6;
52000;PMS5003;38015;50.924;11.598;2022-08-30T12:45:40;8;8;
52000;PMS5003;38015;50.924;11.598;2022-08-30T12:48:10;8;8;
52000;PMS5003;38015;50.924;11.598;2022-08-30T12:50:42;7;7;
52000;PMS5003;38015;50.924;11.598;2022-08-30T12:53:10;6;6;
52000;PMS5003;38015;50.924;11.598;2022-08-30T12:58:10;8;8;
52000;PMS5003;38015;50.924;11.598;2022-08-30T13:00:42;10;9;
52000;PMS5003;38015;50.924;11.598;2022-08-30T13:05:44;9;9;
52000;PMS5003;38015;50.924;11.598;2022-08-30T13:08:14;6;6;
52000;PMS5003;38015;50.924;11.598;2022-08-30T13:13:24;10;9;
52000;PMS5003;38015;50.924;11.598;2022-08-30T13:15:44;9;9;
52000;PMS5003;38015;50.924;11.598;2022-08-30T13:18:17;8;7;
52000;PMS5003;38015;50.924;11.598;2022-08-30T13:20:44;6;6;
52000;PMS5003;38015;50.924;11.598;2022-08-30T13:25:45;6;6;
52000;PMS5003;38015;50.924;11.598;2022-08-30T13:28:15;12;9;
52000;PMS5003;38015;50.924;11.598;2022-08-30T13:30:45;7;7;
52000;PMS5003;38015;50.924;11.598;2022-08-30T13:33:16;6;6;
52000;PMS5003;38015;50.924;11.598;2022-08-30T13:35:46;6;6;
52000;PMS5003;38015;50.924;11.598;2022-08-30T13:38:16;6;6;
52000;PMS5003;38015;50.924;11.598;2022-08-30T13:40:47;6;6;
52000;PMS5003;38015;50.924;11.598;2022-08-30T13:43:17;8;8;
52000;PMS5003;38015;50.924;11.598;2022-08-30T13:45:47;8;7;
52000;PMS5003;38015;50.924;11.598;2022-08-30T13:48:17;7;7;
52000;PMS5003;38015;50.924;11.598;2022-08-30T13:50:48;8;8;
52000;PMS5003;38015;50.924;11.598;2022-08-30T13:53:18;8;7;
52000;PMS5003;38015;50.924;11.598;2022-08-30T13:55:48;8;8;
52000;PMS5003;38015;50.924;11.598;2022-08-30T13:58:19;8;8;
52000;PMS5003;38015;50.924;11.598;2022-08-30T14:00:49;7;6;
52000;PMS5003;38015;50.924;11.598;2022-08-30T14:03:19;7;7;
52000;PMS5003;38015;50.924;11.598;2022-08-30T14:05:50;6;6;
52000;PMS5003;38015;50.924;11.598;2022-08-30T14:08:21;8;8;
52000;PMS5003;38015;50.924;11.598;2022-08-30T14:10:50;9;8;
52000;PMS5003;38015;50.924;11.598;2022-08-30T14:13:21;8;8;
52000;PMS5003;38015;50.924;11.598;2022-08-30T14:15:52;8;7;
52000;PMS5003;38015;50.924;11.598;2022-08-30T14:18:22;8;8;
52000;PMS5003;38015;50.924;11.598;2022-08-30T14:20:52;6;6;
52000;PMS5003;38015;50.924;11.598;2022-08-30T14:23:23;9;9;
52000;PMS5003;38015;50.924;11.598;2022-08-30T14:25:54;9;8;
52000;PMS5003;38015;50.924;11.598;2022-08-30T14:28:24;8;7;
52000;PMS5003;38015;50.924;11.598;2022-08-30T14:30:54;5;5;
52000;PMS5003;38015;50.924;11.598;2022-08-30T14:33:25;8;8;
52000;PMS5003;38015;50.924;11.598;2022-08-30T14:35:55;7;7;
52000;PMS5003;38015;50.924;11.598;2022-08-30T14:38:25;8;8;
52000;PMS5003;38015;50.924;11.598;2022-08-30T14:40:56;9;8;
52000;PMS5003;38015;50.924;11.598;2022-08-30T14:43:26;7;7;
52000;PMS5003;38015;50.924;11.598;2022-08-30T14:45:57;9;8;
52000;PMS5003;38015;50.924;11.598;2022-08-30T14:48:27;12;9;
52000;PMS5003;38015;50.924;11.598;2022-08-30T14:50:57;7;7;
52000;PMS5003;38015;50.924;11.598;2022-08-30T14:53:27;8;8;
52000;PMS5003;38015;50.924;11.598;2022-08-30T14:55:58;10;10;
52000;PMS5003;38015;50.924;11.598;2022-08-30T14:58:28;7;7;
52000;PMS5003;38015;50.924;11.598;2022-08-30T15:00:59;8;8;
52000;PMS5003;38015;50.924;11.598;2022-08-30T15:03:29;9;9;
52000;PMS5003;38015;50.924;11.598;2022-08-30T15:05:59;9;7;
52000;PMS5003;38015;50.924;11.598;2022-08-30T15:08:30;8;8;
52000;PMS5003;38015;50.924;11.598;2022-08-30T15:11:05;10;9;
52000;PMS5003;38015;50.924;11.598;2022-08-30T15:13:31;7;7;
52000;PMS5003;38015;50.924;11.598;2022-08-30T15:16:02;9;8;
52000;PMS5003;38015;50.924;11.598;2022-08-30T15:18:32;10;9;
52000;PMS5003;38015;50.924;11.598;2022-08-30T15:21:03;7;7;
52000;PMS5003;38015;50.924;11.598;2022-08-30T15:23:33;10;10;
52000;PMS5003;38015;50.924;11.598;2022-08-30T15:26:03;7;7;
52000;PMS5003;38015;50.924;11.598;2022-08-30T15:28:34;8;8;
52000;PMS5003;38015;50.924;11.598;2022-08-30T15:31:04;11;10;
52000;PMS5003;38015;50.924;11.598;2022-08-30T15:33:34;9;9;
52000;PMS5003;38015;50.924;11.598;2022-08-30T15:36:06;8;8;
52000;PMS5003;38015;50.924;11.598;2022-08-30T15:38:35;10;8;
52000;PMS5003;38015;50.924;11.598;2022-08-30T15:41:06;7;7;
52000;PMS5003;38015;50.924;11.598;2022-08-30T15:43:36;8;8;
52000;PMS5003;38015;50.924;11.598;2022-08-30T15:48:36;8;8;
52000;PMS5003;38015;50.924;11.598;2022-08-30T15:51:07;8;8;
52000;PMS5003;38015;50.924;11.598;2022-08-30T15:53:37;10;9;
52000;PMS5003;38015;50.924;11.598;2022-08-30T15:56:07;8;8;
52000;PMS5003;38015;50.924;11.598;2022-08-30T15:58:38;9;8;
52000;PMS5003;38015;50.924;11.598;2022-08-30T16:01:08;9;9;
52000;PMS5003;38015;50.924;11.598;2022-08-30T16:03:38;8;8;
52000;PMS5003;38015;50.924;11.598;2022-08-30T16:06:10;11;9;
52000;PMS5003;38015;50.924;11.598;2022-08-30T16:08:39;9;9;
52000;PMS5003;38015;50.924;11.598;2022-08-30T16:11:10;8;8;
52000;PMS5003;38015;50.924;11.598;2022-08-30T16:13:40;8;8;
52000;PMS5003;38015;50.924;11.598;2022-08-30T16:16:10;8;8;
52000;PMS5003;38015;50.924;11.598;2022-08-30T16:18:40;7;7;
52000;PMS5003;38015;50.924;11.598;2022-08-30T16:21:11;10;9;
52000;PMS5003;38015;50.924;11.598;2022-08-30T16:23:42;9;8;
52000;PMS5003;38015;50.924;11.598;2022-08-30T16:26:12;9;8;
52000;PMS5003;38015;50.924;11.598;2022-08-30T16:28:42;9;9;
52000;PMS5003;38015;50.924;11.598;2022-08-30T16:31:13;9;7;
52000;PMS5003;38015;50.924;11.598;2022-08-30T16:33:42;6;6;
52000;PMS5003;38015;50.924;11.598;2022-08-30T16:36:13;8;8;
52000;PMS5003;38015;50.924;11.598;2022-08-30T16:38:43;8;8;
52000;PMS5003;38015;50.924;11.598;2022-08-30T16:41:14;10;10;
52000;PMS5003;38015;50.924;11.598;2022-08-30T16:43:44;8;8;
52000;PMS5003;38015;50.924;11.598;2022-08-30T16:46:16;9;9;
52000;PMS5003;38015;50.924;11.598;2022-08-30T16:48:44;8;8;
52000;PMS5003;38015;50.924;11.598;2022-08-30T16:51:16;9;9;
52000;PMS5003;38015;50.924;11.598;2022-08-30T16:53:46;10;10;
52000;PMS5003;38015;50.924;11.598;2022-08-30T16:56:17;9;9;
52000;PMS5003;38015;50.924;11.598;2022-08-30T16:58:47;9;9;
52000;PMS5003;38015;50.924;11.598;2022-08-30T17:01:17;8;8;
52000;PMS5003;38015;50.924;11.598;2022-08-30T17:03:48;10;9;
52000;PMS5003;38015;50.924;11.598;2022-08-30T17:06:18;12;12;
52000;PMS5003;38015;50.924;11.598;2022-08-30T17:08:49;8;8;
52000;PMS5003;38015;50.924;11.598;2022-08-30T17:11:19;9;9;
52000;PMS5003;38015;50.924;11.598;2022-08-30T17:13:49;11;10;
52000;PMS5003;38015;50.924;11.598;2022-08-30T17:16:20;8;8;
52000;PMS5003;38015;50.924;11.598;2022-08-30T17:18:50;7;7;
52000;PMS5003;38015;50.924;11.598;2022-08-30T17:21:20;8;8;
52000;PMS5003;38015;50.924;11.598;2022-08-30T17:23:51;10;8;
52000;PMS5003;38015;50.924;11.598;2022-08-30T17:26:21;8;8;
52000;PMS5003;38015;50.924;11.598;2022-08-30T17:28:51;9;7;
52000;PMS5003;38015;50.924;11.598;2022-08-30T17:31:22;9;9;
52000;PMS5003;38015;50.924;11.598;2022-08-30T17:33:52;7;7;
52000;PMS5003;38015;50.924;11.598;2022-08-30T17:36:22;10;10;